createdAt,value
2022-10-18T00:02:12.294Z,93.44
2022-10-18T00:04:38.749Z,93.60
2022-10-18T00:07:05.167Z,93.60
2022-10-18T00:09:31.602Z,94.30
2022-10-18T00:11:58.242Z,94.11
2022-10-18T00:14:25.120Z,94.29
2022-10-18T00:16:51.470Z,94.30
2022-10-18T00:19:17.855Z,94.36
2022-10-18T00:24:15.492Z,93.92
2022-10-18T00:26:41.826Z,94.42
2022-10-18T00:29:13.896Z,94.49
2022-10-18T00:31:40.387Z,94.40
2022-10-18T00:34:11.170Z,94.48
2022-10-18T00:36:37.520Z,95.13
2022-10-18T00:39:07.224Z,95.14
2022-10-18T00:41:35.547Z,94.80
2022-10-18T00:44:26.846Z,95.34
2022-10-18T00:46:57.872Z,95.08
2022-10-18T00:49:32.543Z,95.01
2022-10-18T00:52:02.399Z,95.31
2022-10-18T00:54:31.014Z,95.42
2022-10-18T00:56:57.546Z,95.58
2022-10-18T00:59:24.386Z,95.30
2022-10-18T01:01:50.811Z,96.04
2022-10-18T01:04:19.138Z,95.67
2022-10-18T01:07:01.088Z,95.66
2022-10-18T01:09:50.964Z,94.83
2022-10-18T01:12:26.040Z,94.58
2022-10-18T01:15:14.219Z,94.93
2022-10-18T01:17:57.729Z,95.09
2022-10-18T01:20:51.390Z,95.75
2022-10-18T01:23:41.086Z,95.31
2022-10-18T01:26:26.247Z,94.91
2022-10-18T01:29:20.668Z,94.75
2022-10-18T01:31:53.466Z,94.77
2022-10-18T01:34:25.944Z,95.52
2022-10-18T01:36:54.512Z,95.36
2022-10-18T01:39:25.662Z,95.76
2022-10-18T01:41:54.611Z,95.58
2022-10-18T01:44:25.323Z,95.63
2022-10-18T01:46:55.606Z,95.10
2022-10-18T01:49:22.595Z,94.87
2022-10-18T01:51:48.928Z,94.24
2022-10-18T01:54:21.593Z,94.51
2022-10-18T01:57:02.463Z,94.64
2022-10-18T01:59:58.042Z,95.37
2022-10-18T02:02:44.238Z,94.89
2022-10-18T02:05:17.911Z,95.01
2022-10-18T02:08:00.107Z,94.75
2022-10-18T02:10:43.098Z,94.80
2022-10-18T02:13:13.018Z,94.75
2022-10-18T02:15:43.284Z,94.58
2022-10-18T02:18:25.420Z,94.82
2022-10-18T02:20:53.067Z,94.19
2022-10-18T02:23:23.183Z,95.29
2022-10-18T02:25:50.850Z,94.83
2022-10-18T02:28:17.502Z,94.69
2022-10-18T02:31:04.609Z,94.93
2022-10-18T02:33:51.651Z,94.48
2022-10-18T02:36:27.238Z,94.93
2022-10-18T02:39:00.422Z,95.38
2022-10-18T02:41:27.890Z,94.62
2022-10-18T02:43:54.303Z,95.25
2022-10-18T02:46:21.029Z,95.78
2022-10-18T02:48:47.379Z,95.33
2022-10-18T02:51:14.160Z,95.62
2022-10-18T02:53:40.502Z,95.32
2022-10-18T02:56:07.035Z,95.50
2022-10-18T02:58:33.351Z,95.72
2022-10-18T03:00:59.681Z,95.92
2022-10-18T03:03:26.078Z,95.99
2022-10-18T03:05:52.782Z,95.72
2022-10-18T03:08:19.786Z,95.60
2022-10-18T03:10:46.887Z,95.87
2022-10-18T03:13:13.384Z,95.44
2022-10-18T03:15:40.076Z,95.67
2022-10-18T03:18:06.421Z,95.89
2022-10-18T03:20:34.996Z,95.79
2022-10-18T03:23:01.388Z,96.41
2022-10-18T03:25:27.752Z,96.70
2022-10-18T03:27:54.100Z,96.63
2022-10-18T03:30:20.458Z,96.55
2022-10-18T03:32:46.787Z,96.91
2022-10-18T03:35:13.125Z,96.35
2022-10-18T03:37:39.517Z,96.20
2022-10-18T03:40:07.801Z,96.00
2022-10-18T03:42:34.646Z,96.03
2022-10-18T03:45:01.255Z,96.19
2022-10-18T03:47:27.631Z,95.74
2022-10-18T03:49:57.007Z,95.16
2022-10-18T03:52:23.824Z,95.09
2022-10-18T03:54:50.187Z,95.02
2022-10-18T03:57:16.696Z,94.67
2022-10-18T03:59:43.464Z,95.07
2022-10-18T04:02:09.816Z,94.81
2022-10-18T04:04:36.186Z,94.90
2022-10-18T04:07:02.528Z,95.22
2022-10-18T04:09:28.896Z,94.73
2022-10-18T04:11:55.228Z,94.71
2022-10-18T04:14:22.001Z,94.88
2022-10-18T04:16:48.418Z,95.52
2022-10-18T04:19:14.830Z,95.27
2022-10-18T04:21:41.196Z,95.77
2022-10-18T04:24:07.572Z,95.77
2022-10-18T04:26:34.068Z,95.47
2022-10-18T04:29:00.557Z,96.36
2022-10-18T04:31:27.064Z,95.98
2022-10-18T04:33:53.603Z,96.20
2022-10-18T04:36:19.945Z,96.00
2022-10-18T04:38:46.284Z,95.78
2022-10-18T04:41:12.621Z,95.48
2022-10-18T04:43:39.012Z,95.13
2022-10-18T04:46:05.481Z,95.72
2022-10-18T04:48:31.831Z,95.79
2022-10-18T04:50:58.196Z,95.65
2022-10-18T04:53:24.536Z,95.75
2022-10-18T04:55:51.310Z,95.99
2022-10-18T04:58:18.578Z,95.46
2022-10-18T05:00:45.775Z,95.46
2022-10-18T05:03:13.947Z,95.13
2022-10-18T05:06:00.273Z,94.86
2022-10-18T05:08:27.082Z,95.41
2022-10-18T05:10:53.497Z,94.74
2022-10-18T05:13:19.950Z,94.89
2022-10-18T05:15:47.423Z,95.55
2022-10-18T05:18:13.864Z,95.96
2022-10-18T05:20:40.211Z,96.18
2022-10-18T05:23:06.656Z,95.70
2022-10-18T05:25:33.103Z,95.60
2022-10-18T05:28:03.434Z,95.48
2022-10-18T05:30:38.934Z,96.13
2022-10-18T05:33:05.894Z,95.42
2022-10-18T05:35:32.753Z,95.19
2022-10-18T05:37:59.206Z,95.33
2022-10-18T05:40:25.595Z,95.80
2022-10-18T05:42:52.574Z,96.05
2022-10-18T05:45:19.359Z,96.23
2022-10-18T05:47:45.866Z,95.82
2022-10-18T05:50:12.274Z,95.90
2022-10-18T05:52:38.643Z,95.70
2022-10-18T05:55:05.492Z,95.59
2022-10-18T05:57:32.649Z,95.89
2022-10-18T05:59:59.207Z,95.35
2022-10-18T06:02:25.650Z,95.20
2022-10-18T06:04:52.061Z,95.21
2022-10-18T06:07:18.404Z,94.88
2022-10-18T06:09:44.721Z,95.24
2022-10-18T06:12:11.107Z,95.42
2022-10-18T06:14:37.621Z,95.20
2022-10-18T06:17:04.262Z,95.49
2022-10-18T06:19:30.656Z,95.41
2022-10-18T06:21:57.041Z,94.55
2022-10-18T06:24:23.398Z,94.75
2022-10-18T06:26:49.970Z,94.68
2022-10-18T06:29:16.370Z,95.46
2022-10-18T06:31:42.706Z,95.51
2022-10-18T06:34:09.048Z,95.52
2022-10-18T06:36:35.421Z,95.81
2022-10-18T06:39:02.531Z,95.05
2022-10-18T06:41:28.886Z,94.65
2022-10-18T06:43:57.457Z,95.19
2022-10-18T06:46:25.602Z,95.60
2022-10-18T06:48:52.021Z,95.66
2022-10-18T06:51:18.457Z,94.83
2022-10-18T06:53:59.258Z,95.05
2022-10-18T06:56:31.450Z,94.79
2022-10-18T07:01:25.297Z,94.94
2022-10-18T07:03:53.742Z,95.50
2022-10-18T07:06:21.171Z,94.66
2022-10-18T07:08:49.252Z,94.35
2022-10-18T07:11:18.760Z,94.16
2022-10-18T07:13:45.536Z,94.75
2022-10-18T07:16:17.357Z,93.79
2022-10-18T07:18:48.378Z,94.78
2022-10-18T07:21:16.999Z,94.03
2022-10-18T07:23:46.142Z,93.99
2022-10-18T07:26:20.525Z,94.10
2022-10-18T07:28:50.221Z,93.89
2022-10-18T07:31:17.180Z,93.84
2022-10-18T07:33:43.657Z,94.11
2022-10-18T07:36:12.376Z,93.67
2022-10-18T07:38:39.111Z,93.46
2022-10-18T07:41:07.512Z,94.08
2022-10-18T07:43:34.963Z,94.53
2022-10-18T07:46:04.125Z,94.32
2022-10-18T07:48:30.959Z,94.03
2022-10-18T07:51:01.805Z,93.64
2022-10-18T07:53:29.264Z,92.58
2022-10-18T07:56:01.393Z,92.88
2022-10-18T07:58:31.435Z,94.11
2022-10-18T08:00:57.973Z,94.37
2022-10-18T08:03:24.361Z,94.83
2022-10-18T08:05:55.306Z,95.06
2022-10-18T08:08:23.764Z,94.72
2022-10-18T08:10:50.647Z,94.45
2022-10-18T08:13:17.127Z,93.78
2022-10-18T08:15:43.696Z,93.84
2022-10-18T08:18:10.576Z,92.52
2022-10-18T08:20:37.076Z,92.95
2022-10-18T08:23:04.520Z,93.42
2022-10-18T08:25:31.027Z,94.29
2022-10-18T08:27:57.680Z,94.37
2022-10-18T08:30:24.118Z,93.78
2022-10-18T08:32:50.491Z,93.31
2022-10-18T08:35:16.928Z,92.71
2022-10-18T08:37:45.258Z,91.98
2022-10-18T08:40:15.223Z,92.42
2022-10-18T08:43:04.787Z,92.09
2022-10-18T08:45:42.536Z,93.00
2022-10-18T08:48:21.848Z,93.30
2022-10-18T08:50:50.787Z,92.50
2022-10-18T08:53:24.006Z,93.48
2022-10-18T08:55:54.753Z,93.28
2022-10-18T08:58:23.824Z,92.56
2022-10-18T09:01:13.664Z,93.30
2022-10-18T09:04:07.792Z,93.71
2022-10-18T09:06:37.096Z,93.40
2022-10-18T09:09:36.218Z,94.28
2022-10-18T09:12:53.450Z,94.02
2022-10-18T09:15:48.949Z,93.83
2022-10-18T09:18:40.350Z,93.62
2022-10-18T09:21:20.202Z,93.21
2022-10-18T09:24:01.171Z,92.83
2022-10-18T09:26:27.711Z,92.19
2022-10-18T09:29:16.414Z,91.84
2022-10-18T09:31:42.764Z,92.75
2022-10-18T09:34:22.926Z,93.54
2022-10-18T09:36:51.919Z,92.77
2022-10-18T09:39:30.166Z,93.07
2022-10-18T09:42:03.661Z,93.95
2022-10-18T09:44:39.645Z,95.08
2022-10-18T09:47:16.882Z,94.50
2022-10-18T09:49:51.359Z,93.99
2022-10-18T09:52:28.236Z,92.58
2022-10-18T09:55:00.006Z,91.99
2022-10-18T09:57:41.064Z,90.96
2022-10-18T10:00:16.185Z,90.76
2022-10-18T10:02:42.625Z,89.82
2022-10-18T10:05:14.166Z,88.98
2022-10-18T10:07:47.369Z,89.17
2022-10-18T10:10:20.039Z,87.26
2022-10-18T10:12:47.115Z,86.82
2022-10-18T10:15:21.063Z,85.45
2022-10-18T10:18:03.245Z,84.35
2022-10-18T10:20:42.258Z,82.12
2022-10-18T10:23:30.612Z,78.21
2022-10-18T10:26:01.111Z,79.03
2022-10-18T10:28:35.156Z,80.58
2022-10-18T10:31:28.745Z,80.65
2022-10-18T10:34:01.775Z,81.48
2022-10-18T10:36:29.495Z,84.41
2022-10-18T10:39:13.478Z,84.27
2022-10-18T10:41:41.338Z,81.75
2022-10-18T10:44:16.732Z,74.78
2022-10-18T10:46:43.237Z,67.64
2022-10-18T10:49:40.163Z,67.13
2022-10-18T10:52:09.255Z,69.50
2022-10-18T10:54:52.124Z,71.91
2022-10-18T10:57:23.877Z,70.88
2022-10-18T10:59:53.531Z,70.87
2022-10-18T11:02:31.196Z,63.97
2022-10-18T11:05:25.051Z,57.20
2022-10-18T11:07:55.425Z,53.67
2022-10-18T11:10:30.680Z,51.71
2022-10-18T11:13:17.725Z,51.99
2022-10-18T11:15:52.338Z,50.53
2022-10-18T11:18:25.332Z,52.48
2022-10-18T11:21:07.831Z,54.34
2022-10-18T11:23:37.134Z,52.75
2022-10-18T11:26:12.621Z,49.35
2022-10-18T11:28:39.046Z,48.20
2022-10-18T11:31:17.534Z,48.47
2022-10-18T11:34:11.592Z,46.23
2022-10-18T11:37:27.240Z,47.77
2022-10-18T11:40:12.825Z,42.20
2022-10-18T11:43:00.751Z,45.78
2022-10-18T11:45:36.175Z,44.87
2022-10-18T11:48:16.426Z,43.66
2022-10-18T11:50:54.965Z,43.54
2022-10-18T11:53:29.442Z,41.28
2022-10-18T11:56:19.566Z,39.53
2022-10-18T11:58:54.746Z,40.16
2022-10-18T12:01:32.512Z,46.51
2022-10-18T12:04:09.363Z,53.28
2022-10-18T12:06:41.489Z,56.54
2022-10-18T12:09:28.520Z,61.11
2022-10-18T12:12:20.430Z,65.01
2022-10-18T12:14:54.785Z,66.18
2022-10-18T12:17:43.138Z,65.92
2022-10-18T12:20:16.970Z,67.53
2022-10-18T12:22:49.917Z,67.84
2022-10-18T12:25:18.054Z,68.80
2022-10-18T12:27:53.063Z,67.75
2022-10-18T12:30:46.928Z,68.57
2022-10-18T12:33:27.684Z,68.63
2022-10-18T12:36:00.994Z,69.02
2022-10-18T12:38:31.637Z,63.34
2022-10-18T12:40:59.198Z,60.03
2022-10-18T12:43:33.970Z,60.27
2022-10-18T12:46:03.837Z,64.76
2022-10-18T12:48:36.383Z,64.71
2022-10-18T12:51:16.659Z,61.39
2022-10-18T12:53:50.412Z,62.29
2022-10-18T12:56:43.222Z,66.24
2022-10-18T12:59:15.718Z,69.11
2022-10-18T13:02:05.256Z,69.80
2022-10-18T13:04:32.425Z,71.12
2022-10-18T13:07:02.953Z,72.30
2022-10-18T13:09:37.270Z,72.21
2022-10-18T13:12:09.711Z,72.16
2022-10-18T13:15:12.399Z,71.82
2022-10-18T13:17:59.903Z,72.05
2022-10-18T13:20:31.886Z,73.67
2022-10-18T13:23:07.393Z,73.78
2022-10-18T13:25:54.129Z,73.73
2022-10-18T13:28:24.483Z,75.09
2022-10-18T13:31:22.800Z,74.97
2022-10-18T13:33:49.458Z,75.05
2022-10-18T13:36:22.814Z,74.81
2022-10-18T13:38:57.553Z,74.23
2022-10-18T13:41:35.442Z,74.20
2022-10-18T13:44:02.079Z,74.39
2022-10-18T13:46:34.122Z,74.50
2022-10-18T13:49:14.887Z,74.66
2022-10-18T13:52:03.434Z,74.94
2022-10-18T13:54:55.915Z,75.00
2022-10-18T13:57:55.210Z,75.46
2022-10-18T14:00:36.884Z,74.96
2022-10-18T14:03:56.224Z,74.87
2022-10-18T14:06:25.949Z,74.84
2022-10-18T14:08:57.934Z,74.27
2022-10-18T14:11:34.088Z,74.32
2022-10-18T14:14:13.378Z,74.22
2022-10-18T14:16:46.906Z,74.53
2022-10-18T14:19:30.192Z,74.97
2022-10-18T14:22:11.552Z,75.70
2022-10-18T14:24:43.479Z,75.84
2022-10-18T14:27:18.301Z,76.78
2022-10-18T14:29:45.903Z,76.56
2022-10-18T14:32:28.173Z,77.18
2022-10-18T14:35:27.358Z,78.18
2022-10-18T14:37:47.505Z,77.71
2022-10-18T14:40:39.219Z,78.06
2022-10-18T14:43:12.722Z,78.38
2022-10-18T14:45:42.939Z,77.03
2022-10-18T14:48:24.401Z,75.51
2022-10-18T14:50:59.360Z,74.33
2022-10-18T14:53:34.462Z,72.28
2022-10-18T14:56:05.742Z,71.82
2022-10-18T14:58:34.704Z,71.84
2022-10-18T15:01:01.186Z,71.77
2022-10-18T15:03:28.378Z,72.14
2022-10-18T15:06:00.391Z,71.63
2022-10-18T15:08:32.630Z,72.18
2022-10-18T15:10:59.243Z,72.54
2022-10-18T15:13:27.507Z,72.93
2022-10-18T15:15:55.727Z,73.21
2022-10-18T15:18:25.504Z,73.76
2022-10-18T15:21:21.513Z,73.94
2022-10-18T15:23:51.233Z,73.89
2022-10-18T15:26:33.001Z,74.15
2022-10-18T15:29:01.590Z,74.31
2022-10-18T15:31:34.857Z,75.04
2022-10-18T15:34:23.425Z,75.12
2022-10-18T15:36:51.556Z,75.57
2022-10-18T15:39:21.882Z,75.52
2022-10-18T15:41:51.442Z,76.36
2022-10-18T15:44:21.517Z,77.17
2022-10-18T15:46:49.291Z,77.01
2022-10-18T15:49:24.634Z,77.15
2022-10-18T15:52:32.565Z,77.46
2022-10-18T15:55:02.526Z,78.12
2022-10-18T15:57:31.408Z,78.38
2022-10-18T16:00:02.083Z,78.79
2022-10-18T16:02:29.028Z,79.27
2022-10-18T16:04:55.737Z,79.33
2022-10-18T16:07:22.251Z,79.76
2022-10-18T16:09:48.574Z,80.08
2022-10-18T16:12:14.953Z,80.47
2022-10-18T16:14:41.291Z,80.42
2022-10-18T16:17:07.855Z,80.94
2022-10-18T16:19:34.246Z,81.04
2022-10-18T16:22:06.069Z,81.61
2022-10-18T16:24:33.271Z,82.16
2022-10-18T16:26:59.643Z,82.35
2022-10-18T16:29:28.397Z,83.42
2022-10-18T16:31:57.971Z,83.30
2022-10-18T16:34:26.944Z,83.55
2022-10-18T16:36:53.790Z,83.34
2022-10-18T16:39:21.568Z,83.53
2022-10-18T16:41:48.622Z,83.33
2022-10-18T16:44:16.656Z,83.41
2022-10-18T16:46:43.038Z,83.09
2022-10-18T16:49:22.626Z,83.02
2022-10-18T16:51:50.019Z,83.16
2022-10-18T16:54:16.528Z,82.85
2022-10-18T16:56:42.872Z,83.16
2022-10-18T16:59:20.459Z,83.14
2022-10-18T17:01:46.867Z,83.27
2022-10-18T17:04:13.403Z,83.52
2022-10-18T17:06:39.890Z,83.63
2022-10-18T17:09:06.249Z,83.16
2022-10-18T17:11:32.619Z,83.40
2022-10-18T17:13:58.954Z,83.60
2022-10-18T17:16:30.819Z,83.02
2022-10-18T17:18:59.215Z,83.30
2022-10-18T17:21:27.042Z,83.05
2022-10-18T17:23:53.507Z,83.41
2022-10-18T17:26:30.100Z,83.26
2022-10-18T17:29:03.995Z,83.85
2022-10-18T17:31:32.272Z,83.74
2022-10-18T17:34:01.368Z,83.86
2022-10-18T17:36:31.909Z,83.69
2022-10-18T17:38:58.494Z,83.63
2022-10-18T17:41:24.835Z,84.52
2022-10-18T17:43:51.299Z,84.44
2022-10-18T17:46:18.204Z,85.09
2022-10-18T17:48:45.326Z,84.81
2022-10-18T17:51:14.463Z,84.82
2022-10-18T17:53:41.013Z,84.99
2022-10-18T17:56:10.356Z,84.87
2022-10-18T17:58:36.811Z,84.86
2022-10-18T18:01:14.565Z,85.17
2022-10-18T18:03:41.347Z,85.38
2022-10-18T18:06:18.436Z,85.13
2022-10-18T18:08:45.406Z,85.83
2022-10-18T18:11:12.198Z,85.95
2022-10-18T18:13:38.857Z,85.83
2022-10-18T18:16:12.885Z,85.82
2022-10-18T18:18:39.423Z,86.18
2022-10-18T18:21:05.888Z,86.31
2022-10-18T18:23:32.339Z,86.32
2022-10-18T18:25:58.979Z,86.52
2022-10-18T18:28:25.413Z,86.81
2022-10-18T18:30:51.798Z,86.61
2022-10-18T18:33:18.152Z,87.33
2022-10-18T18:35:44.500Z,87.24
2022-10-18T18:38:10.856Z,87.11
2022-10-18T18:40:37.224Z,87.68
2022-10-18T18:43:12.391Z,87.68
2022-10-18T18:45:50.489Z,88.21
2022-10-18T18:48:19.145Z,87.95
2022-10-18T18:50:49.939Z,88.26
2022-10-18T18:53:16.739Z,88.07
2022-10-18T18:55:43.137Z,88.38
2022-10-18T18:58:11.055Z,88.54
2022-10-18T19:00:43.369Z,88.25
2022-10-18T19:03:11.347Z,88.17
2022-10-18T19:05:38.149Z,88.71
2022-10-18T19:08:05.613Z,88.62
2022-10-18T19:10:32.126Z,89.33
2022-10-18T19:12:58.575Z,88.84
2022-10-18T19:15:24.993Z,89.80
2022-10-18T19:17:51.313Z,89.10
2022-10-18T19:20:18.106Z,89.22
2022-10-18T19:22:45.424Z,89.56
2022-10-18T19:25:11.874Z,89.97
2022-10-18T19:27:38.475Z,90.17
2022-10-18T19:30:08.027Z,90.86
2022-10-18T19:32:34.669Z,89.80
2022-10-18T19:35:01.111Z,89.33
2022-10-18T19:37:27.544Z,90.76
2022-10-18T19:39:53.985Z,90.77
2022-10-18T19:42:26.115Z,91.45
2022-10-18T19:44:54.945Z,91.40
2022-10-18T19:47:21.399Z,92.24
2022-10-18T19:49:48.051Z,91.80
2022-10-18T19:52:14.561Z,92.17
2022-10-18T19:54:41.077Z,91.41
2022-10-18T19:57:07.776Z,91.43
2022-10-18T19:59:35.865Z,91.80
2022-10-18T20:02:04.566Z,91.81
2022-10-18T20:04:34.281Z,91.46
2022-10-18T20:07:02.527Z,91.95
2022-10-18T20:09:29.150Z,92.12
2022-10-18T20:11:55.500Z,92.07
2022-10-18T20:14:21.915Z,92.18
2022-10-18T20:16:48.248Z,91.76
2022-10-18T20:19:14.576Z,92.52
2022-10-18T20:21:40.983Z,92.37
2022-10-18T20:24:09.170Z,92.04
2022-10-18T20:26:35.868Z,92.42
2022-10-18T20:29:02.965Z,92.62
2022-10-18T20:31:35.565Z,92.69
2022-10-18T20:34:04.316Z,93.54
2022-10-18T20:36:31.876Z,93.00
2022-10-18T20:38:59.076Z,93.32
2022-10-18T20:41:37.992Z,93.76
2022-10-18T20:44:09.619Z,94.39
2022-10-18T20:46:37.728Z,94.78
2022-10-18T20:49:06.186Z,94.95
2022-10-18T20:51:33.677Z,94.59
2022-10-18T20:54:01.882Z,94.52
2022-10-18T20:56:28.400Z,95.14
2022-10-18T20:58:56.711Z,94.61
2022-10-18T21:01:34.305Z,95.01
2022-10-18T21:04:03.124Z,93.96
2022-10-18T21:06:31.585Z,94.30
2022-10-18T21:09:00.499Z,94.70
2022-10-18T21:11:28.392Z,94.83
2022-10-18T21:13:58.821Z,94.98
2022-10-18T21:16:26.074Z,95.10
2022-10-18T21:18:52.414Z,95.01
2022-10-18T21:21:22.766Z,94.68
2022-10-18T21:23:49.903Z,94.61
2022-10-18T21:26:19.202Z,95.10
2022-10-18T21:28:46.658Z,95.35
2022-10-18T21:31:17.139Z,95.20
2022-10-18T21:33:44.866Z,94.85
2022-10-18T21:36:12.178Z,95.47
2022-10-18T21:38:39.215Z,95.59
2022-10-18T21:41:10.655Z,95.30
2022-10-18T21:43:41.157Z,95.14
2022-10-18T21:46:08.038Z,95.52
2022-10-18T21:48:34.392Z,95.34
2022-10-18T21:51:04.916Z,95.36
2022-10-18T21:53:31.423Z,95.16
2022-10-18T21:56:08.428Z,95.38
2022-10-18T21:58:36.339Z,95.44
2022-10-18T22:01:12.321Z,95.57
2022-10-18T22:03:38.875Z,95.97
2022-10-18T22:06:08.952Z,96.10
2022-10-18T22:08:36.083Z,96.00
2022-10-18T22:11:04.676Z,96.83
2022-10-18T22:13:31.247Z,95.83
2022-10-18T22:16:02.302Z,95.74
2022-10-18T22:18:29.550Z,96.34
2022-10-18T22:21:07.046Z,95.51
2022-10-18T22:23:35.255Z,95.79
2022-10-18T22:26:09.855Z,95.94
2022-10-18T22:28:36.966Z,96.00
2022-10-18T22:31:04.256Z,96.07
2022-10-18T22:33:30.753Z,96.33
2022-10-18T22:35:57.215Z,95.97
2022-10-18T22:38:23.880Z,95.97
2022-10-18T22:40:50.279Z,95.87
2022-10-18T22:43:16.676Z,96.30
2022-10-18T22:45:43.072Z,96.04
2022-10-18T22:48:09.493Z,95.47
2022-10-18T22:50:35.833Z,95.66
2022-10-18T22:53:02.166Z,95.83
2022-10-18T22:55:28.511Z,95.82
2022-10-18T22:57:55.822Z,95.31
2022-10-18T23:00:22.266Z,95.95
2022-10-18T23:02:49.719Z,96.31
2022-10-18T23:05:16.289Z,96.23
2022-10-18T23:07:47.547Z,96.59
2022-10-18T23:10:14.013Z,96.77
2022-10-18T23:12:40.384Z,96.26
2022-10-18T23:15:07.520Z,96.52
2022-10-18T23:17:34.041Z,96.38
2022-10-18T23:20:00.475Z,96.32
2022-10-18T23:22:26.862Z,96.63
2022-10-18T23:24:53.235Z,96.26
2022-10-18T23:27:19.612Z,96.76
2022-10-18T23:29:45.926Z,96.78
2022-10-18T23:32:12.257Z,96.78
2022-10-18T23:34:38.586Z,97.21
2022-10-18T23:37:05.066Z,96.31
2022-10-18T23:39:31.422Z,96.45
2022-10-18T23:41:57.795Z,96.53
2022-10-18T23:44:24.176Z,95.46
2022-10-18T23:46:50.488Z,95.51
2022-10-18T23:49:16.818Z,95.31
2022-10-18T23:51:43.228Z,96.08
2022-10-18T23:54:09.555Z,96.10
2022-10-18T23:56:35.900Z,95.36
2022-10-18T23:59:02.435Z,95.43
